createdAt,value
2019-05-05T00:00:25.646Z,11.2
2019-05-05T00:01:15.799Z,11.3
2019-05-05T00:02:05.569Z,11.2
2019-05-05T00:02:55.886Z,11.2
2019-05-05T00:03:45.348Z,11.2
2019-05-05T00:04:35.883Z,11.2
2019-05-05T00:05:25.706Z,11.2
2019-05-05T00:06:15.792Z,11.2
2019-05-05T00:07:05.657Z,11.2
2019-05-05T00:07:56.212Z,11.2
2019-05-05T00:08:46.735Z,11.2
2019-05-05T00:09:35.896Z,11.1
2019-05-05T00:10:26.074Z,11.2
2019-05-05T00:11:16.178Z,11.1
2019-05-05T00:12:06.097Z,11.1
2019-05-05T00:12:56.134Z,11.1
2019-05-05T00:13:45.890Z,11.1
2019-05-05T00:14:36.210Z,11.1
2019-05-05T00:15:26.002Z,11.1
2019-05-05T00:16:16.080Z,11.1
2019-05-05T00:17:06.419Z,11.1
2019-05-05T00:17:56.464Z,11.1
2019-05-05T00:18:46.539Z,11.1
2019-05-05T00:19:36.964Z,11.1
2019-05-05T00:20:26.659Z,11.1
2019-05-05T00:21:16.712Z,11.1
2019-05-05T00:22:06.771Z,11.1
2019-05-05T00:22:56.292Z,11.1
2019-05-05T00:23:46.908Z,11.1
2019-05-05T00:24:36.963Z,11.1
2019-05-05T00:25:27.022Z,11.1
2019-05-05T00:26:17.099Z,11.1
2019-05-05T00:27:07.168Z,11.1
2019-05-05T00:27:56.674Z,11.1
2019-05-05T00:28:47.263Z,11.1
2019-05-05T00:29:37.339Z,11.1
2019-05-05T00:30:27.394Z,11.1
2019-05-05T00:31:17.461Z,11
2019-05-05T00:32:07.514Z,11
2019-05-05T00:32:57.591Z,11
2019-05-05T00:33:47.374Z,11
2019-05-05T00:34:37.705Z,11
2019-05-05T00:35:27.763Z,11
2019-05-05T00:36:17.573Z,11
2019-05-05T00:37:07.881Z,11
2019-05-05T00:37:57.945Z,11
2019-05-05T00:38:48.008Z,11
2019-05-05T00:39:38.083Z,11
2019-05-05T00:40:28.135Z,10.9
2019-05-05T00:41:18.213Z,11
2019-05-05T00:42:08.261Z,11
2019-05-05T00:42:58.347Z,11
2019-05-05T00:43:48.125Z,11
2019-05-05T00:44:38.441Z,11
2019-05-05T00:45:28.248Z,10.9
2019-05-05T00:46:18.563Z,10.9
2019-05-05T00:47:08.567Z,10.9
2019-05-05T00:47:58.694Z,11
2019-05-05T00:48:49.230Z,10.9
2019-05-05T00:49:49.842Z,11
2019-05-05T00:50:29.367Z,10.9
2019-05-05T00:51:18.662Z,10.9
2019-05-05T00:52:08.732Z,10.9
2019-05-05T00:52:59.072Z,10.9
2019-05-05T00:53:49.597Z,10.9
2019-05-05T00:54:39.201Z,10.9
2019-05-05T00:55:29.252Z,10.9
2019-05-05T00:56:19.045Z,10.9
2019-05-05T00:57:09.850Z,10.9
2019-05-05T00:57:59.427Z,10.9
2019-05-05T00:58:49.520Z,10.9
2019-05-05T00:59:39.566Z,10.9
2019-05-05T01:00:30.107Z,10.9
2019-05-05T01:01:19.677Z,10.9
2019-05-05T01:02:09.747Z,10.9
2019-05-05T01:03:00.295Z,10.9
2019-05-05T01:03:50.072Z,10.9
2019-05-05T01:04:40.405Z,10.9
2019-05-05T01:05:30.471Z,10.9
2019-05-05T01:06:20.254Z,10.9
2019-05-05T01:07:10.587Z,10.9
2019-05-05T01:08:00.169Z,10.9
2019-05-05T01:08:50.711Z,10.9
2019-05-05T01:09:40.296Z,10.9
2019-05-05T01:10:30.831Z,10.9
2019-05-05T01:11:20.904Z,10.8
2019-05-05T01:12:10.682Z,10.8
2019-05-05T01:13:00.751Z,10.8
2019-05-05T01:13:51.081Z,10.8
2019-05-05T01:14:41.146Z,10.8
2019-05-05T01:15:31.206Z,10.8
2019-05-05T01:16:20.739Z,10.8
2019-05-05T01:17:11.342Z,10.8
2019-05-05T01:18:05.394Z,10.8
2019-05-05T01:18:51.457Z,10.8
2019-05-05T01:19:41.236Z,10.8
2019-05-05T01:20:31.306Z,10.8
2019-05-05T01:21:21.645Z,10.8
2019-05-05T01:22:11.418Z,10.8
2019-05-05T01:23:01.771Z,10.8
2019-05-05T01:23:51.834Z,10.8
2019-05-05T01:24:41.901Z,10.7
2019-05-05T01:25:31.965Z,10.7
2019-05-05T01:26:21.468Z,10.7
2019-05-05T01:27:12.078Z,10.7
2019-05-05T01:28:01.879Z,10.7
2019-05-05T01:28:52.211Z,10.7
2019-05-05T01:29:41.998Z,10.6
2019-05-05T01:30:31.788Z,10.6
2019-05-05T01:31:22.398Z,10.6
2019-05-05T01:32:12.455Z,10.6
2019-05-05T01:33:01.980Z,10.6
2019-05-05T01:33:54.030Z,10.6
2019-05-05T01:34:44.816Z,10.6
2019-05-05T01:35:34.568Z,10.6
2019-05-05T01:36:24.443Z,10.6
2019-05-05T01:37:12.817Z,10.6
2019-05-05T01:38:04.703Z,10.6
2019-05-05T01:38:52.406Z,10.6
2019-05-05T01:39:45.023Z,10.5
2019-05-05T01:40:32.793Z,10.6
2019-05-05T01:41:22.582Z,10.5
2019-05-05T01:42:15.287Z,10.5
2019-05-05T01:43:05.121Z,10.5
2019-05-05T01:43:55.587Z,10.4
2019-05-05T01:44:45.754Z,10.5
2019-05-05T01:45:35.699Z,10.5
2019-05-05T01:46:25.254Z,10.5
2019-05-05T01:47:15.764Z,10.4
2019-05-05T01:48:05.876Z,10.4
2019-05-05T01:48:55.593Z,10.4
2019-05-05T01:49:46.164Z,10.4
2019-05-05T01:50:35.594Z,10.4
2019-05-05T01:51:25.737Z,10.4
2019-05-05T01:52:16.322Z,10.4
2019-05-05T01:53:05.932Z,10.4
2019-05-05T01:53:56.009Z,10.4
2019-05-05T01:54:45.809Z,10.4
2019-05-05T01:55:35.906Z,10.4
2019-05-05T01:56:26.256Z,10.3
2019-05-05T01:57:16.113Z,10.3
2019-05-05T01:58:06.051Z,10.3
2019-05-05T01:58:56.279Z,10.3
2019-05-05T01:59:46.026Z,10.3
2019-05-05T02:00:36.323Z,10.3
2019-05-05T02:01:26.182Z,10.3
2019-05-05T02:02:16.162Z,10.3
2019-05-05T02:03:05.803Z,10.3
2019-05-05T02:03:56.386Z,10.3
2019-05-05T02:04:45.699Z,10.3
2019-05-05T02:05:36.373Z,10.3
2019-05-05T02:06:26.386Z,10.2
2019-05-05T02:07:15.774Z,10.2
2019-05-05T02:08:06.522Z,10.2
2019-05-05T02:08:56.406Z,10.2
2019-05-05T02:09:46.399Z,10.2
2019-05-05T02:10:36.408Z,10.2
2019-05-05T02:11:26.253Z,10.2
2019-05-05T02:12:17.371Z,10.1
2019-05-05T02:13:06.210Z,10.1
2019-05-05T02:13:55.875Z,10.1
2019-05-05T02:14:45.498Z,10.1
2019-05-05T02:15:35.963Z,10.1
2019-05-05T02:16:26.598Z,10.1
2019-05-05T02:17:15.457Z,10.1
2019-05-05T02:18:05.867Z,10.1
2019-05-05T02:18:56.058Z,10.1
2019-05-05T02:19:45.727Z,10.1
2019-05-05T02:20:35.769Z,10.1
2019-05-05T02:21:26.343Z,10.1
2019-05-05T02:22:16.345Z,10
2019-05-05T02:23:05.962Z,10
2019-05-05T02:23:56.169Z,10
2019-05-05T02:24:45.798Z,10
2019-05-05T02:25:36.137Z,10
2019-05-05T02:26:25.918Z,10
2019-05-05T02:27:16.262Z,9.9
2019-05-05T02:28:06.315Z,10
2019-05-05T02:28:56.656Z,9.9
2019-05-05T02:29:46.719Z,9.9
2019-05-05T02:30:37.261Z,9.9
2019-05-05T02:31:27.178Z,9.9
2019-05-05T02:32:17.548Z,9.9
2019-05-05T02:33:07.922Z,9.9
2019-05-05T02:33:58.179Z,9.9
2019-05-05T02:34:47.195Z,9.9
2019-05-05T02:35:37.170Z,9.9
2019-05-05T02:36:27.465Z,9.9
2019-05-05T02:37:17.740Z,9.9
2019-05-05T02:38:08.288Z,9.8
2019-05-05T02:38:58.037Z,9.8
2019-05-05T02:40:08.269Z,9.8
2019-05-05T02:41:27.605Z,9.8
2019-05-05T02:42:17.654Z,9.8
2019-05-05T02:43:07.469Z,9.8
2019-05-05T02:43:57.534Z,9.8
2019-05-05T02:44:47.855Z,9.8
2019-05-05T02:45:37.942Z,9.8
2019-05-05T02:46:27.997Z,9.8
2019-05-05T02:47:17.769Z,9.8
2019-05-05T02:48:07.816Z,9.8
2019-05-05T02:48:57.633Z,9.8
2019-05-05T02:49:47.690Z,9.8
2019-05-05T02:51:07.277Z,9.8
2019-05-05T02:52:18.423Z,9.8
2019-05-05T02:53:07.911Z,9.8
2019-05-05T02:53:58.241Z,9.7
2019-05-05T02:54:48.581Z,9.7
2019-05-05T02:55:38.358Z,9.7
2019-05-05T02:56:28.693Z,9.7
2019-05-05T02:57:18.759Z,9.7
2019-05-05T02:58:08.824Z,9.7
2019-05-05T02:58:58.593Z,9.7
2019-05-05T02:59:48.660Z,9.6
2019-05-05T03:00:38.998Z,9.7
2019-05-05T03:01:28.788Z,9.7
2019-05-05T03:02:18.854Z,9.7
2019-05-05T03:03:08.925Z,9.6
2019-05-05T03:06:38.829Z,9.6
2019-05-05T03:08:19.210Z,9.6
2019-05-05T03:09:09.270Z,9.6
2019-05-05T03:09:59.058Z,9.6
2019-05-05T03:10:49.398Z,9.6
2019-05-05T03:11:39.180Z,9.6
2019-05-05T03:12:29.232Z,9.6
2019-05-05T03:13:19.024Z,9.6
2019-05-05T03:14:09.630Z,9.6
2019-05-05T03:14:59.430Z,9.6
2019-05-05T03:15:49.771Z,9.6
2019-05-05T03:16:39.564Z,9.6
2019-05-05T03:17:29.891Z,9.6
2019-05-05T03:18:19.961Z,9.6
2019-05-05T03:19:09.455Z,9.5
2019-05-05T03:20:00.069Z,9.5
2019-05-05T03:21:08.322Z,9.5
2019-05-05T03:22:30.254Z,9.5
2019-05-05T03:23:20.314Z,9.5
2019-05-05T03:24:10.381Z,9.5
2019-05-05T03:25:00.442Z,9.5
2019-05-05T03:25:49.943Z,9.5
2019-05-05T03:26:40.286Z,9.4
2019-05-05T03:27:30.626Z,9.4
2019-05-05T03:28:20.701Z,9.4
2019-05-05T03:29:10.463Z,9.4
2019-05-05T03:30:01.030Z,9.4
2019-05-05T03:30:50.898Z,9.4
2019-05-05T03:31:40.979Z,9.4
2019-05-05T03:32:31.012Z,9.4
2019-05-05T03:33:21.077Z,9.4
2019-05-05T03:34:11.125Z,9.4
2019-05-05T03:35:00.912Z,9.4
2019-05-05T03:35:50.967Z,9.4
2019-05-05T03:36:41.301Z,9.4
2019-05-05T03:37:31.796Z,9.4
2019-05-05T03:38:21.438Z,9.4
2019-05-05T03:39:11.215Z,9.4
2019-05-05T03:40:01.290Z,9.4
2019-05-05T03:40:51.673Z,9.4
2019-05-05T03:41:41.411Z,9.4
2019-05-05T03:42:33.613Z,9.4
2019-05-05T03:43:23.490Z,9.4
2019-05-05T03:44:13.897Z,9.4
2019-05-05T03:45:03.943Z,9.4
2019-05-05T03:45:53.695Z,9.4
2019-05-05T03:46:43.652Z,9.4
2019-05-05T03:47:34.187Z,9.4
2019-05-05T03:48:23.578Z,9.4
2019-05-05T03:49:14.416Z,9.4
2019-05-05T03:50:04.790Z,9.4
2019-05-05T03:50:53.838Z,9.4
2019-05-05T03:51:44.352Z,9.4
2019-05-05T03:53:24.353Z,9.4
2019-05-05T03:54:14.885Z,9.4
2019-05-05T03:55:05.180Z,9.4
2019-05-05T03:55:54.934Z,9.4
2019-05-05T03:56:44.604Z,9.4
2019-05-05T03:57:34.853Z,9.4
2019-05-05T03:58:25.023Z,9.4
2019-05-05T03:59:15.509Z,9.4
2019-05-05T04:00:05.264Z,9.4
2019-05-05T04:00:52.277Z,9.4
2019-05-05T04:01:45.406Z,9.4
2019-05-05T04:03:25.164Z,9.4
2019-05-05T04:04:15.054Z,9.4
2019-05-05T04:05:05.417Z,9.4
2019-05-05T04:05:55.283Z,9.4
2019-05-05T04:06:45.251Z,9.4
2019-05-05T04:07:35.226Z,9.4
2019-05-05T04:08:24.728Z,9.4
2019-05-05T04:09:15.241Z,9.4
2019-05-05T04:10:04.956Z,9.5
2019-05-05T04:10:56.019Z,9.5
2019-05-05T04:11:45.846Z,9.5
2019-05-05T04:12:36.053Z,9.5
2019-05-05T04:13:25.708Z,9.5
2019-05-05T04:14:18.895Z,9.6
2019-05-05T04:15:05.207Z,9.6
2019-05-05T04:15:54.956Z,9.6
2019-05-05T04:17:35.181Z,9.6
2019-05-05T04:18:24.753Z,9.6
2019-05-05T04:19:14.824Z,9.6
2019-05-05T04:20:05.057Z,9.6
2019-05-05T04:20:54.998Z,9.6
2019-05-05T04:21:46.384Z,9.6
2019-05-05T04:22:35.838Z,9.7
2019-05-05T04:23:26.060Z,9.7
2019-05-05T04:24:15.810Z,9.7
2019-05-05T04:25:05.608Z,9.7
2019-05-05T04:25:55.401Z,9.7
2019-05-05T04:26:45.340Z,9.8
2019-05-05T04:27:35.813Z,9.8
2019-05-05T04:28:25.050Z,9.8
2019-05-05T04:29:15.477Z,9.8
2019-05-05T04:30:05.435Z,9.8
2019-05-05T04:30:55.090Z,9.8
2019-05-05T04:31:45.110Z,9.8
2019-05-05T04:32:36.363Z,9.9
2019-05-05T04:33:24.962Z,9.9
2019-05-05T04:34:15.577Z,9.9
2019-05-05T04:35:05.365Z,9.9
2019-05-05T04:35:55.812Z,9.9
2019-05-05T04:36:45.919Z,9.9
2019-05-05T04:37:35.559Z,9.9
2019-05-05T04:39:15.982Z,9.9
2019-05-05T04:40:06.019Z,10
2019-05-05T04:40:56.080Z,10
2019-05-05T04:41:45.886Z,10
2019-05-05T04:42:36.199Z,10
2019-05-05T04:43:25.992Z,10
2019-05-05T04:44:19.177Z,10.1
2019-05-05T04:45:06.386Z,10.1
2019-05-05T04:45:56.441Z,10.1
2019-05-05T04:46:46.226Z,10.1
2019-05-05T04:47:36.561Z,10.1
2019-05-05T04:48:26.826Z,10.1
2019-05-05T04:49:16.686Z,10.1
2019-05-05T04:50:06.772Z,10.1
2019-05-05T04:50:56.549Z,10.1
2019-05-05T04:51:51.219Z,10.1
2019-05-05T04:53:27.013Z,10.2
2019-05-05T04:54:17.076Z,10.2
2019-05-05T04:55:06.846Z,10.2
2019-05-05T04:55:57.181Z,10.3
2019-05-05T04:56:47.242Z,10.3
2019-05-05T04:57:37.298Z,10.3
2019-05-05T04:58:27.363Z,10.3
2019-05-05T04:59:17.443Z,10.3
2019-05-05T05:00:07.243Z,10.3
2019-05-05T05:00:57.287Z,10.3
2019-05-05T05:01:47.346Z,10.3
2019-05-05T05:02:37.703Z,10.4
2019-05-05T05:03:27.466Z,10.4
2019-05-05T05:04:17.803Z,10.4
2019-05-05T05:05:07.860Z,10.4
2019-05-05T05:05:57.923Z,10.5
2019-05-05T05:06:47.983Z,10.6
2019-05-05T05:07:38.070Z,10.6
2019-05-05T05:08:27.835Z,10.7
2019-05-05T05:09:18.168Z,10.8
2019-05-05T05:10:08.230Z,10.8
2019-05-05T05:10:58.302Z,10.9
2019-05-05T05:11:48.093Z,11
2019-05-05T05:12:37.880Z,11.1
2019-05-05T05:13:28.492Z,11.2
2019-05-05T05:14:18.284Z,11.3
2019-05-05T05:15:08.610Z,11.4
2019-05-05T05:15:58.682Z,11.5
2019-05-05T05:16:48.447Z,11.6
2019-05-05T05:17:38.780Z,11.7
2019-05-05T05:18:28.845Z,11.8
2019-05-05T05:20:08.977Z,12
2019-05-05T05:20:58.487Z,12.1
2019-05-05T05:22:05.524Z,12.2
2019-05-05T05:23:30.725Z,12.4
2019-05-05T05:24:19.289Z,12.5
2019-05-05T05:25:09.347Z,12.6
2019-05-05T05:25:59.129Z,12.7
2019-05-05T05:26:49.462Z,12.8
2019-05-05T05:27:39.253Z,12.9
2019-05-05T05:28:29.606Z,13
2019-05-05T05:29:19.102Z,13.1
2019-05-05T05:30:09.439Z,13.3
2019-05-05T05:30:59.774Z,13.4
2019-05-05T05:31:49.564Z,13.5
2019-05-05T05:32:41.109Z,13.6
2019-05-05T05:33:29.991Z,13.8
2019-05-05T05:34:20.029Z,13.9
2019-05-05T05:35:09.555Z,13.9
2019-05-05T05:35:59.893Z,14
2019-05-05T05:36:49.953Z,14.1
2019-05-05T05:37:39.731Z,14.1
2019-05-05T05:38:30.331Z,14.1
2019-05-05T05:39:20.389Z,14.2
2019-05-05T05:40:10.459Z,14.2
2019-05-05T05:41:00.514Z,14.3
2019-05-05T05:41:50.581Z,14.3
2019-05-05T05:42:40.090Z,14.3
2019-05-05T05:43:30.711Z,14.3
2019-05-05T05:44:20.776Z,14.3
2019-05-05T05:45:10.840Z,14.3
2019-05-05T05:46:00.903Z,14.3
2019-05-05T05:46:50.963Z,14.4
2019-05-05T05:47:40.723Z,14.4
2019-05-05T05:48:31.085Z,14.4
2019-05-05T05:49:21.148Z,14.4
2019-05-05T05:50:10.931Z,14.4
2019-05-05T05:51:00.729Z,14.4
2019-05-05T05:51:50.773Z,14.4
2019-05-05T05:52:43.439Z,14.5
2019-05-05T05:53:31.450Z,14.6
2019-05-05T05:54:23.298Z,14.6
2019-05-05T05:55:11.562Z,14.6
2019-05-05T05:56:51.418Z,14.6
2019-05-05T05:57:43.671Z,14.7
2019-05-05T05:58:33.572Z,14.7
2019-05-05T05:59:21.347Z,14.7
2019-05-05T06:00:11.681Z,14.8
2019-05-05T06:01:01.725Z,14.8
2019-05-05T06:02:06.009Z,14.8
2019-05-05T06:04:38.709Z,14.9
2019-05-05T06:05:29.034Z,15
2019-05-05T06:06:19.092Z,15.1
2019-05-05T06:07:08.887Z,15.1
2019-05-05T06:07:58.937Z,15.1
2019-05-05T06:08:48.999Z,15.2
2019-05-05T06:09:39.326Z,15.3
2019-05-05T06:10:29.117Z,15.4
2019-05-05T06:11:19.449Z,15.5
2019-05-05T06:12:09.520Z,15.6
2019-05-05T06:12:59.317Z,15.7
2019-05-05T06:13:49.657Z,15.8
2019-05-05T06:14:39.701Z,16
2019-05-05T06:15:29.496Z,16.1
2019-05-05T06:16:19.546Z,16.3
2019-05-05T06:17:09.895Z,16.6
2019-05-05T06:17:59.679Z,16.8
2019-05-05T06:18:50.001Z,16.9
2019-05-05T06:19:40.096Z,17.1
2019-05-05T06:20:30.127Z,17.4
2019-05-05T06:21:19.643Z,17.6
2019-05-05T06:22:09.971Z,17.8
2019-05-05T06:23:00.038Z,17.9
2019-05-05T06:23:50.113Z,18.2
2019-05-05T06:24:40.209Z,18.5
2019-05-05T06:25:30.526Z,18.8
2019-05-05T06:26:20.307Z,19.1
2019-05-05T06:27:10.639Z,19.5
2019-05-05T06:28:00.416Z,19.9
2019-05-05T06:28:50.761Z,20.3
2019-05-05T06:30:30.606Z,20.9
2019-05-05T06:31:20.653Z,21.2
2019-05-05T06:32:10.715Z,21.4
2019-05-05T06:33:01.073Z,21.6
2019-05-05T06:33:51.126Z,21.7
2019-05-05T06:34:41.180Z,21.8
2019-05-05T06:35:30.685Z,21.9
2019-05-05T06:36:21.025Z,21.9
2019-05-05T06:37:11.087Z,22
2019-05-05T06:38:01.427Z,22
2019-05-05T06:38:51.494Z,22.1
2019-05-05T06:39:41.300Z,22.1
2019-05-05T06:40:31.350Z,22.1
2019-05-05T06:41:23.606Z,22.1
2019-05-05T06:42:11.195Z,22.1
2019-05-05T06:43:01.522Z,22
2019-05-05T06:43:51.900Z,22
2019-05-05T06:44:44.099Z,21.9
2019-05-05T06:45:34.074Z,21.9
2019-05-05T06:46:24.095Z,21.8
2019-05-05T06:47:13.955Z,21.8
2019-05-05T06:48:01.895Z,21.7
2019-05-05T06:48:53.735Z,21.6
2019-05-05T06:49:44.651Z,21.5
2019-05-05T06:50:34.384Z,21.4
2019-05-05T06:51:24.319Z,21.4
2019-05-05T06:52:14.722Z,21.3
2019-05-05T06:53:04.730Z,21.3
2019-05-05T06:53:54.444Z,21.2
2019-05-05T06:55:34.684Z,21.1
2019-05-05T06:56:24.716Z,21
2019-05-05T06:57:14.821Z,20.9
2019-05-05T06:58:05.059Z,20.9
2019-05-05T06:58:54.979Z,20.9
2019-05-05T06:59:45.264Z,20.9
2019-05-05T07:00:35.570Z,20.9
2019-05-05T07:01:25.209Z,20.9
2019-05-05T07:02:15.473Z,21
2019-05-05T07:05:28.986Z,21.3
2019-05-05T07:06:18.785Z,21.3
2019-05-05T07:07:09.348Z,21.4
2019-05-05T07:07:58.904Z,21.6
2019-05-05T07:08:48.961Z,21.8
2019-05-05T07:09:38.738Z,21.9
2019-05-05T07:12:09.722Z,22.8
2019-05-05T07:12:59.252Z,23.2
2019-05-05T07:13:49.338Z,23.6
2019-05-05T07:14:39.395Z,24.2
2019-05-05T07:15:29.734Z,24.7
2019-05-05T07:16:19.795Z,25.2
2019-05-05T07:17:09.843Z,25.6
2019-05-05T07:17:59.928Z,26
2019-05-05T07:18:49.975Z,26.3
2019-05-05T07:19:39.483Z,26.6
2019-05-05T07:20:29.826Z,26.9
2019-05-05T07:21:20.158Z,27.2
2019-05-05T07:22:10.221Z,27.5
2019-05-05T07:23:06.543Z,27.8
2019-05-05T07:23:50.343Z,28
2019-05-05T07:24:39.575Z,28.2
2019-05-05T07:25:46.362Z,28.4
2019-05-05T07:27:10.320Z,28.8
2019-05-05T07:28:00.135Z,28.9
2019-05-05T07:28:50.440Z,29.1
2019-05-05T07:29:40.735Z,29.3
2019-05-05T07:30:30.559Z,29.4
2019-05-05T07:31:20.895Z,29.6
2019-05-05T07:32:10.681Z,29.8
2019-05-05T07:33:00.747Z,29.8
2019-05-05T07:33:51.080Z,29.8
2019-05-05T07:34:40.867Z,29.8
2019-05-05T07:35:31.197Z,29.7
2019-05-05T07:36:21.512Z,29.6
2019-05-05T07:37:11.061Z,29.6
2019-05-05T07:38:01.412Z,29.6
2019-05-05T07:38:51.197Z,29.6
2019-05-05T07:39:41.521Z,29.6
2019-05-05T07:40:31.581Z,29.7
2019-05-05T07:41:23.957Z,29.8
2019-05-05T07:42:13.662Z,29.9
2019-05-05T07:43:16.429Z,30
2019-05-05T07:44:43.633Z,30.3
2019-05-05T07:45:31.661Z,23.6
2019-05-05T07:46:23.900Z,17.7
2019-05-05T07:48:01.864Z,38.9
2019-05-05T07:48:54.277Z,39.6
2019-05-05T07:50:37.276Z,44.1
2019-05-05T07:51:24.733Z,44.4
2019-05-05T07:52:15.530Z,44.5
2019-05-05T07:53:18.639Z,43.8
2019-05-05T07:54:44.338Z,43.2
2019-05-05T07:55:34.796Z,43
2019-05-05T07:56:24.796Z,42.8
2019-05-05T07:57:14.399Z,42.7
2019-05-05T07:58:04.866Z,42.6
2019-05-05T07:58:55.253Z,43.4
2019-05-05T07:59:45.333Z,43.6
2019-05-05T08:00:35.263Z,44.9
2019-05-05T08:01:25.435Z,44.4
2019-05-05T08:02:15.455Z,45.8
2019-05-05T08:03:05.195Z,47.8
2019-05-05T08:03:55.263Z,48.3
2019-05-05T08:04:45.338Z,48.1
2019-05-05T08:05:35.075Z,47.8
2019-05-05T08:06:25.225Z,47.7
2019-05-05T08:07:15.649Z,47.7
2019-05-05T08:08:06.013Z,47.6
2019-05-05T08:08:55.975Z,47.6
2019-05-05T08:09:45.851Z,47.9
2019-05-05T08:10:35.587Z,48.4
2019-05-05T08:11:24.635Z,48.9
2019-05-05T08:12:15.250Z,49.4
2019-05-05T08:13:05.810Z,49.6
2019-05-05T08:13:55.875Z,49.6
2019-05-05T08:14:46.180Z,49.6
2019-05-05T08:15:35.592Z,49.8
2019-05-05T08:16:25.492Z,50
2019-05-05T08:17:16.114Z,50.3
2019-05-05T08:18:20.514Z,50.3
2019-05-05T08:18:55.367Z,50.3
2019-05-05T08:19:44.972Z,50.4
2019-05-05T08:20:34.924Z,50.6
2019-05-05T08:21:25.529Z,50.7
2019-05-05T08:22:15.666Z,50.6
2019-05-05T08:23:08.833Z,50.4
2019-05-05T08:23:55.591Z,50.3
2019-05-05T08:24:45.444Z,50.3
2019-05-05T08:25:41.044Z,50.3
2019-05-05T08:26:24.694Z,50.1
2019-05-05T08:27:15.449Z,50.1
2019-05-05T08:28:05.364Z,50.1
2019-05-05T08:28:55.034Z,50.1
2019-05-05T08:29:44.864Z,50.1
2019-05-05T08:30:34.611Z,50
2019-05-05T08:31:25.998Z,49.8
2019-05-05T08:32:14.917Z,49.8
2019-05-05T08:33:06.206Z,50
2019-05-05T08:33:55.731Z,50.2
2019-05-05T08:35:01.519Z,50.3
2019-05-05T08:36:25.239Z,50.1
2019-05-05T08:37:15.658Z,50
2019-05-05T08:38:05.760Z,49.9
2019-05-05T08:38:55.393Z,49.9
2019-05-05T08:39:45.788Z,49.8
2019-05-05T08:40:36.281Z,49.7
2019-05-05T08:41:26.088Z,49.6
2019-05-05T08:42:15.413Z,49.5
2019-05-05T08:43:06.295Z,49.4
2019-05-05T08:43:55.791Z,49.4
2019-05-05T08:44:46.339Z,49.3
2019-05-05T08:45:35.932Z,49.3
2019-05-05T08:46:26.170Z,49.3
2019-05-05T08:47:16.225Z,49.3
2019-05-05T08:48:06.183Z,49.3
2019-05-05T08:48:56.170Z,49.3
2019-05-05T08:49:46.227Z,49.4
2019-05-05T08:50:36.304Z,49.6
2019-05-05T08:51:26.075Z,49.7
2019-05-05T08:52:16.135Z,49.9
2019-05-05T08:53:09.433Z,50.4
2019-05-05T08:53:56.725Z,51.1
2019-05-05T08:54:46.600Z,51.6
2019-05-05T08:56:26.452Z,52.3
2019-05-05T08:57:16.776Z,52.5
2019-05-05T08:58:07.054Z,52.7
2019-05-05T08:58:56.911Z,52.9
2019-05-05T08:59:47.177Z,53.1
2019-05-05T09:00:37.506Z,53.3
2019-05-05T09:01:27.565Z,53.6
2019-05-05T09:02:17.624Z,53.8
2019-05-05T09:03:07.682Z,54
2019-05-05T09:03:57.748Z,54.2
2019-05-05T09:04:47.262Z,54.4
2019-05-05T09:05:37.874Z,54.6
2019-05-05T09:06:27.932Z,54.8
2019-05-05T09:07:18.018Z,54.9
2019-05-05T09:08:07.793Z,55.1
2019-05-05T09:08:58.142Z,55.3
2019-05-05T09:09:48.187Z,55.4
2019-05-05T09:10:37.991Z,55.5
2019-05-05T09:11:28.324Z,55.7
2019-05-05T09:12:18.376Z,55.9
2019-05-05T09:13:08.166Z,56
2019-05-05T09:13:58.246Z,56.3
2019-05-05T09:14:48.571Z,56.3
2019-05-05T09:15:38.671Z,56.4
2019-05-05T09:16:28.408Z,56.6
2019-05-05T09:17:18.194Z,56.8
2019-05-05T09:18:08.804Z,56.9
2019-05-05T09:18:58.856Z,56.9
2019-05-05T09:19:48.656Z,56.8
2019-05-05T09:20:38.728Z,56.8
2019-05-05T09:21:29.143Z,56.7
2019-05-05T09:22:19.115Z,56.8
2019-05-05T09:23:09.170Z,56.8
2019-05-05T09:24:06.031Z,56.9
2019-05-05T09:24:49.021Z,56.8
2019-05-05T09:25:39.089Z,56.6
2019-05-05T09:26:29.423Z,56.4
2019-05-05T09:27:19.475Z,56.3
2019-05-05T09:28:09.554Z,56.3
2019-05-05T09:28:59.606Z,56.2
2019-05-05T09:29:49.128Z,56.3
2019-05-05T09:30:39.732Z,56.3
2019-05-05T09:31:29.515Z,56.3
2019-05-05T09:32:19.589Z,56.3
2019-05-05T09:33:09.645Z,56.1
2019-05-05T09:33:59.982Z,56
2019-05-05T09:34:50.069Z,55.8
2019-05-05T09:35:39.838Z,55.7
2019-05-05T09:36:30.170Z,55.6
2019-05-05T09:37:20.262Z,55.6
2019-05-05T09:38:10.300Z,55.7
2019-05-05T09:39:00.084Z,55.9
2019-05-05T09:39:50.410Z,56.2
2019-05-05T09:40:40.465Z,56.3
2019-05-05T09:41:30.259Z,56.3
2019-05-05T09:42:20.059Z,56.3
2019-05-05T09:43:10.659Z,56.2
2019-05-05T09:44:00.740Z,56.3
2019-05-05T09:44:50.504Z,56.4
2019-05-05T09:45:40.572Z,56.6
2019-05-05T09:46:30.911Z,56.9
2019-05-05T09:47:20.967Z,57.2
2019-05-05T09:48:11.041Z,57.4
2019-05-05T09:49:00.812Z,57.3
2019-05-05T09:49:51.142Z,57.1
2019-05-05T09:50:43.384Z,56.9
2019-05-05T09:51:30.719Z,56.6
2019-05-05T09:52:21.331Z,56.5
2019-05-05T09:53:11.179Z,56.4
2019-05-05T09:54:18.190Z,56.4
2019-05-05T09:55:41.579Z,56.3
2019-05-05T09:56:33.729Z,56.1
2019-05-05T09:57:23.572Z,55.9
2019-05-05T09:58:13.451Z,55.7
2019-05-05T09:59:01.276Z,55.6
2019-05-05T09:59:51.889Z,55.5
2019-05-05T10:00:43.945Z,55.5
2019-05-05T10:01:34.325Z,55.4
2019-05-05T10:02:23.820Z,55.4
2019-05-05T10:03:14.238Z,55.3
2019-05-05T10:05:38.823Z,55.3
2019-05-05T10:06:28.881Z,55.4
2019-05-05T10:07:18.389Z,55.4
2019-05-05T10:08:09.003Z,55.5
2019-05-05T10:08:59.063Z,55.7
2019-05-05T10:09:49.126Z,56.1
2019-05-05T10:10:38.895Z,56.4
2019-05-05T10:11:29.248Z,56.6
2019-05-05T10:12:19.300Z,56.9
2019-05-05T10:13:09.108Z,57.2
2019-05-05T10:13:59.150Z,57.4
2019-05-05T10:14:49.530Z,57.6
2019-05-05T10:16:29.070Z,57.9
2019-05-05T10:17:19.674Z,58
2019-05-05T10:18:09.462Z,57.9
2019-05-05T10:18:59.249Z,57.9
2019-05-05T10:19:49.857Z,58.1
2019-05-05T10:20:39.912Z,58.3
2019-05-05T10:21:29.697Z,58.4
2019-05-05T10:23:10.097Z,58.3
2019-05-05T10:23:59.895Z,57.9
2019-05-05T10:24:49.963Z,57.6
2019-05-05T10:25:40.286Z,57.3
2019-05-05T10:26:30.067Z,57
2019-05-05T10:27:20.422Z,56.8
2019-05-05T10:28:10.476Z,56.6
2019-05-05T10:29:04.703Z,56.6
2019-05-05T10:29:50.322Z,56.4
2019-05-05T10:30:40.672Z,56.3
2019-05-05T10:31:30.724Z,56.1
2019-05-05T10:32:20.537Z,55.9
2019-05-05T10:33:10.568Z,55.8
2019-05-05T10:34:00.352Z,55.7
2019-05-05T10:34:50.407Z,55.6
2019-05-05T10:35:41.031Z,55.6
2019-05-05T10:36:30.819Z,55.5
2019-05-05T10:37:21.163Z,55.4
2019-05-05T10:38:10.954Z,55.3
2019-05-05T10:39:00.994Z,55.3
2019-05-05T10:39:50.776Z,55.2
2019-05-05T10:40:41.423Z,55.1
2019-05-05T10:42:21.256Z,54.8
2019-05-05T10:43:11.601Z,54.6
2019-05-05T10:44:03.451Z,54.4
2019-05-05T10:44:50.900Z,54.1
2019-05-05T10:45:41.499Z,53.8
2019-05-05T10:46:33.898Z,53.4
2019-05-05T10:47:23.689Z,53.3
2019-05-05T10:48:11.676Z,53.1
2019-05-05T10:49:02.016Z,52.9
2019-05-05T10:49:52.066Z,53.3
2019-05-05T10:50:41.883Z,53.6
2019-05-05T10:51:31.949Z,53.9
2019-05-05T10:52:22.258Z,53.9
2019-05-05T10:53:14.389Z,53.9
2019-05-05T10:54:04.954Z,53.8
2019-05-05T10:54:54.599Z,52.1
2019-05-05T10:55:44.735Z,50.2
2019-05-05T10:56:34.364Z,51.9
2019-05-05T10:57:24.549Z,53.6
2019-05-05T10:58:14.715Z,53.6
2019-05-05T10:59:04.894Z,54.4
2019-05-05T10:59:54.915Z,54.6
2019-05-05T11:01:32.936Z,54.3
2019-05-05T11:02:25.140Z,54.1
2019-05-05T11:03:15.900Z,53.6
2019-05-05T11:04:03.145Z,53.3
2019-05-05T11:04:54.920Z,52.9
2019-05-05T11:05:45.780Z,52.6
2019-05-05T11:06:33.317Z,52.3
2019-05-05T11:07:24.777Z,52.1
2019-05-05T11:08:15.238Z,51.8
2019-05-05T11:09:05.470Z,51.6
2019-05-05T11:09:53.554Z,51.3
2019-05-05T11:10:46.374Z,51
2019-05-05T11:11:35.555Z,50.7
2019-05-05T11:12:26.104Z,50.4
2019-05-05T11:13:13.553Z,50.1
2019-05-05T11:14:05.287Z,49.8
2019-05-05T11:14:55.392Z,49.6
2019-05-05T11:15:45.709Z,49.3
2019-05-05T11:16:34.068Z,49
2019-05-05T11:17:26.319Z,48.8
2019-05-05T11:18:16.444Z,48.5
2019-05-05T11:19:05.856Z,48.3
2019-05-05T11:19:54.025Z,48.1
2019-05-05T11:20:45.711Z,47.9
2019-05-05T11:21:35.391Z,47.7
2019-05-05T11:22:25.700Z,47.5
2019-05-05T11:23:16.519Z,47.3
2019-05-05T11:24:04.327Z,47.1
2019-05-05T11:25:09.054Z,47
2019-05-05T11:26:35.466Z,46.8
2019-05-05T11:27:25.661Z,46.8
2019-05-05T11:28:14.676Z,46.8
2019-05-05T11:29:05.786Z,46.9
2019-05-05T11:29:55.624Z,47
2019-05-05T11:30:45.126Z,47.2
2019-05-05T11:31:35.581Z,47.3
2019-05-05T11:32:25.981Z,47.5
2019-05-05T11:33:15.786Z,47.6
2019-05-05T11:34:05.063Z,47.8
2019-05-05T11:34:55.118Z,47.9
2019-05-05T11:35:45.948Z,48.1
2019-05-05T11:36:36.153Z,48.3
2019-05-05T11:37:25.580Z,48.7
2019-05-05T11:38:15.471Z,49.5
2019-05-05T11:39:05.163Z,50.3
2019-05-05T11:39:55.778Z,50
2019-05-05T11:40:45.840Z,45.1
2019-05-05T11:41:35.894Z,45
2019-05-05T11:42:25.687Z,50.6
2019-05-05T11:43:15.476Z,50.9
2019-05-05T11:44:05.820Z,53.1
2019-05-05T11:44:56.140Z,54.8
2019-05-05T11:45:46.197Z,55.4
2019-05-05T11:46:36.265Z,55.3